Time;durP1;ratioP1;P1;durP2;ratioP2;P2;SDS_P1;SDS_P2;PMS_P1;PMS_P2;Temp;Humidity;BMP_temperature;BMP_pressure;BME280_temperature;BME280_humidity;BME280_pressure;Samples;Min_cycle;Max_cycle;Signal;HPM_P1;HPM_P2
2021/10/24 00:01:21;;;;;;;4.45;2.88;;;;;;;;;;5070785;28;20484;-51
2021/10/24 00:03:48;;;;;;;4.95;2.90;;;;;;;;;;5071086;28;20017;-50
2021/10/24 00:06:15;;;;;;;3.75;2.30;;;;;;;;;;5070869;28;20024;-50
2021/10/24 00:08:42;;;;;;;3.97;2.83;;;;;;;;;;5070563;28;20044;-51
2021/10/24 00:11:08;;;;;;;3.47;2.42;;;;;;;;;;5075789;28;20074;-52
2021/10/24 00:13:34;;;;;;;3.88;2.55;;;;;;;;;;5091883;28;20046;-50
2021/10/24 00:16:00;;;;;;;4.40;2.60;;;;;;;;;;5085171;28;20031;-48
2021/10/24 00:18:26;;;;;;;3.33;2.22;;;;;;;;;;5086716;28;20411;-51
2021/10/24 00:20:53;;;;;;;3.58;2.55;;;;;;;;;;5070614;28;20031;-51
2021/10/24 00:23:19;;;;;;;4.30;2.83;;;;;;;;;;5070689;28;19908;-50
2021/10/24 00:25:46;;;;;;;3.88;2.50;;;;;;;;;;5070655;28;20153;-48
2021/10/24 00:28:13;;;;;;;4.20;2.58;;;;;;;;;;5070922;28;20024;-48
2021/10/24 00:30:39;;;;;;;4.03;2.83;;;;;;;;;;5070980;28;20411;-51
2021/10/24 00:33:08;;;;;;;4.20;2.45;;;;;;;;;;5071716;28;20090;-48
2021/10/24 00:35:35;;;;;;;2.90;2.42;;;;;;;;;;5071193;28;20102;-48
2021/10/24 00:38:02;;;;;;;3.95;2.63;;;;;;;;;;5067260;28;20571;-48
2021/10/24 00:40:29;;;;;;;3.63;2.38;;;;;;;;;;5067134;28;20413;-50
2021/10/24 00:42:55;;;;;;;3.20;2.13;;;;;;;;;;5067755;28;20028;-50
2021/10/24 00:45:26;;;;;;;3.55;2.50;;;;;;;;;;5067547;28;20028;-48
2021/10/24 00:47:53;;;;;;;3.65;2.10;;;;;;;;;;5067892;28;20025;-51
2021/10/24 00:50:20;;;;;;;2.92;2.17;;;;;;;;;;5084159;28;20060;-50
2021/10/24 00:52:47;;;;;;;3.20;2.03;;;;;;;;;;5087568;28;20028;-50
2021/10/24 00:55:13;;;;;;;5.20;2.58;;;;;;;;;;5075086;28;20063;-49
2021/10/24 00:57:40;;;;;;;3.35;2.17;;;;;;;;;;5067441;28;20036;-51
2021/10/24 01:00:08;;;;;;;4.32;2.45;;;;;;;;;;5068694;28;20107;-50
2021/10/24 01:02:34;;;;;;;3.40;2.40;;;;;;;;;;5066664;28;20040;-51
2021/10/24 01:05:01;;;;;;;2.95;2.40;;;;;;;;;;5067401;28;20055;-48
2021/10/24 01:07:28;;;;;;;3.88;2.30;;;;;;;;;;5066591;28;20519;-47
2021/10/24 01:09:54;;;;;;;4.63;2.35;;;;;;;;;;5080331;28;20107;-51
2021/10/24 01:12:21;;;;;;;5.10;2.67;;;;;;;;;;5084661;28;20411;-49
2021/10/24 01:14:48;;;;;;;3.65;2.20;;;;;;;;;;5087857;28;20023;-51
2021/10/24 01:17:15;;;;;;;4.75;2.33;;;;;;;;;;5086109;28;20443;-51
2021/10/24 01:19:41;;;;;;;3.70;2.28;;;;;;;;;;5073410;28;20110;-48
2021/10/24 01:22:07;;;;;;;4.85;2.95;;;;;;;;;;5066759;28;20032;-50
2021/10/24 01:24:34;;;;;;;5.10;2.78;;;;;;;;;;5066819;28;20376;-51
2021/10/24 01:27:00;;;;;;;7.00;3.28;;;;;;;;;;5065702;28;20040;-49
2021/10/24 01:29:26;;;;;;;7.53;3.97;;;;;;;;;;5066184;28;20024;-50
2021/10/24 01:31:54;;;;;;;6.78;3.55;;;;;;;;;;5066857;28;20051;-50
2021/10/24 01:34:21;;;;;;;5.80;3.13;;;;;;;;;;5066088;28;20032;-51
2021/10/24 01:36:47;;;;;;;5.75;2.75;;;;;;;;;;5067247;28;20086;-50
2021/10/24 01:39:15;;;;;;;5.18;2.75;;;;;;;;;;5067179;28;20284;-51
2021/10/24 01:41:41;;;;;;;4.20;2.58;;;;;;;;;;5066143;28;20036;-48
2021/10/24 01:44:07;;;;;;;3.17;2.13;;;;;;;;;;5067842;28;20028;-50
2021/10/24 01:46:34;;;;;;;5.00;2.15;;;;;;;;;;5067871;28;20032;-50
2021/10/24 01:49:00;;;;;;;3.50;2.22;;;;;;;;;;5067050;28;20024;-49
2021/10/24 01:51:26;;;;;;;3.05;2.03;;;;;;;;;;5067239;28;20032;-50
2021/10/24 01:53:52;;;;;;;5.18;2.90;;;;;;;;;;5067288;28;20070;-51
2021/10/24 01:56:18;;;;;;;4.13;2.45;;;;;;;;;;5068059;28;20040;-49
2021/10/24 01:58:45;;;;;;;4.07;2.58;;;;;;;;;;5068170;28;20021;-47
2021/10/24 02:01:12;;;;;;;4.13;2.78;;;;;;;;;;5066658;28;20035;-51
2021/10/24 02:03:38;;;;;;;6.00;2.88;;;;;;;;;;5068080;28;20036;-48
2021/10/24 02:06:04;;;;;;;3.60;2.20;;;;;;;;;;5067551;28;20036;-48
2021/10/24 02:08:31;;;;;;;4.85;2.70;;;;;;;;;;5067378;28;20027;-50
2021/10/24 02:10:57;;;;;;;3.70;2.40;;;;;;;;;;5067466;28;20025;-50
2021/10/24 02:13:23;;;;;;;4.65;2.85;;;;;;;;;;5066859;28;20508;-49
2021/10/24 02:15:49;;;;;;;2.92;2.05;;;;;;;;;;5067446;28;20048;-50
2021/10/24 02:18:15;;;;;;;4.90;2.20;;;;;;;;;;5077974;28;20112;-51
2021/10/24 02:20:41;;;;;;;3.95;2.40;;;;;;;;;;5087556;28;20032;-50
2021/10/24 02:23:08;;;;;;;3.78;2.28;;;;;;;;;;5078937;28;20036;-49
2021/10/24 02:25:37;;;;;;;3.85;2.20;;;;;;;;;;5067019;28;20782;-50
2021/10/24 02:28:04;;;;;;;4.57;2.35;;;;;;;;;;5067198;28;20048;-47
2021/10/24 02:30:30;;;;;;;2.55;1.88;;;;;;;;;;5066825;28;20521;-51
2021/10/24 02:32:57;;;;;;;2.45;1.70;;;;;;;;;;5066295;28;20479;-51
2021/10/24 02:35:25;;;;;;;4.18;1.85;;;;;;;;;;5066801;28;20388;-52
2021/10/24 02:37:52;;;;;;;1.60;1.42;;;;;;;;;;5067171;28;20056;-50
2021/10/24 02:40:18;;;;;;;2.72;1.85;;;;;;;;;;5066677;28;20028;-50
2021/10/24 02:42:44;;;;;;;2.42;1.95;;;;;;;;;;5067241;28;20020;-51
2021/10/24 02:45:11;;;;;;;2.75;1.83;;;;;;;;;;5066746;28;20024;-51
2021/10/24 02:47:39;;;;;;;3.25;2.17;;;;;;;;;;5066460;28;20027;-48
2021/10/24 02:50:06;;;;;;;4.72;2.20;;;;;;;;;;5066025;28;20860;-51
2021/10/24 02:52:32;;;;;;;5.15;2.47;;;;;;;;;;5080158;28;20040;-50
2021/10/24 02:54:58;;;;;;;4.00;2.55;;;;;;;;;;5088044;28;20055;-49
2021/10/24 02:57:24;;;;;;;5.18;2.72;;;;;;;;;;5085176;28;20032;-52
2021/10/24 02:59:50;;;;;;;5.80;3.00;;;;;;;;;;5084926;28;20033;-50
2021/10/24 03:02:16;;;;;;;3.70;2.30;;;;;;;;;;5083841;28;20119;-51
2021/10/24 03:04:42;;;;;;;3.42;2.33;;;;;;;;;;5066342;28;20025;-47
2021/10/24 03:07:08;;;;;;;3.95;2.67;;;;;;;;;;5066457;28;20032;-50
2021/10/24 03:09:34;;;;;;;2.88;2.35;;;;;;;;;;5066053;28;20116;-51
2021/10/24 03:12:00;;;;;;;4.03;2.47;;;;;;;;;;5067299;28;20111;-51
2021/10/24 03:14:27;;;;;;;3.35;2.53;;;;;;;;;;5065546;28;20529;-49
2021/10/24 03:16:53;;;;;;;4.97;2.85;;;;;;;;;;5066391;28;20032;-49
2021/10/24 03:19:20;;;;;;;3.75;2.42;;;;;;;;;;5064094;28;20052;-50
2021/10/24 03:21:46;;;;;;;4.13;2.72;;;;;;;;;;5082727;28;20028;-52
2021/10/24 03:24:13;;;;;;;8.05;2.63;;;;;;;;;;5065880;28;20051;-53
2021/10/24 03:26:39;;;;;;;4.45;2.88;;;;;;;;;;5066663;28;20024;-53
2021/10/24 03:29:05;;;;;;;4.07;2.50;;;;;;;;;;5066359;28;20016;-54
2021/10/24 03:31:31;;;;;;;3.38;1.92;;;;;;;;;;5066624;28;20514;-52
2021/10/24 03:33:57;;;;;;;4.28;2.30;;;;;;;;;;5066339;28;20601;-51
2021/10/24 03:36:24;;;;;;;3.50;2.13;;;;;;;;;;5065675;28;20395;-51
2021/10/24 03:38:50;;;;;;;2.63;1.83;;;;;;;;;;5065481;28;20028;-50
2021/10/24 03:41:16;;;;;;;3.03;2.00;;;;;;;;;;5065372;28;20055;-53
2021/10/24 03:43:43;;;;;;;2.90;1.60;;;;;;;;;;5065395;28;20078;-53
2021/10/24 03:46:09;;;;;;;2.35;1.70;;;;;;;;;;5066241;28;20031;-52
2021/10/24 03:48:35;;;;;;;2.00;1.75;;;;;;;;;;5065556;28;20046;-50
2021/10/24 03:51:01;;;;;;;1.73;1.63;;;;;;;;;;5066723;28;20047;-50
2021/10/24 03:53:27;;;;;;;2.70;2.05;;;;;;;;;;5065634;28;20035;-50
2021/10/24 03:55:53;;;;;;;2.28;1.60;;;;;;;;;;5066202;28;20479;-49
2021/10/24 03:58:19;;;;;;;3.22;1.80;;;;;;;;;;5065672;28;20499;-50
2021/10/24 04:00:45;;;;;;;5.32;1.73;;;;;;;;;;5065811;28;20029;-50
2021/10/24 04:03:11;;;;;;;2.65;1.50;;;;;;;;;;5074404;28;21448;-49
2021/10/24 04:05:38;;;;;;;3.38;2.20;;;;;;;;;;5085915;28;20043;-52
2021/10/24 04:08:05;;;;;;;2.13;1.52;;;;;;;;;;5085401;28;20073;-52
2021/10/24 04:10:31;;;;;;;1.98;1.42;;;;;;;;;;5084831;28;20487;-50
2021/10/24 04:12:58;;;;;;;2.83;1.92;;;;;;;;;;5087051;28;20108;-52
2021/10/24 04:15:25;;;;;;;2.83;1.67;;;;;;;;;;5087055;28;20063;-50
2021/10/24 04:17:52;;;;;;;2.30;1.80;;;;;;;;;;5088259;28;20036;-50
2021/10/24 04:20:21;;;;;;;2.25;1.77;;;;;;;;;;5087943;28;20099;-49
2021/10/24 04:22:48;;;;;;;4.00;1.80;;;;;;;;;;5088328;28;20024;-49
2021/10/24 04:25:14;;;;;;;2.65;1.45;;;;;;;;;;5069995;28;20029;-50
2021/10/24 04:27:42;;;;;;;2.50;1.85;;;;;;;;;;5068007;28;20085;-50
2021/10/24 04:30:09;;;;;;;1.70;1.40;;;;;;;;;;5067661;28;20032;-50
2021/10/24 04:32:35;;;;;;;3.50;1.63;;;;;;;;;;5067156;28;20439;-49
2021/10/24 04:35:01;;;;;;;2.63;1.80;;;;;;;;;;5082878;28;20036;-52
2021/10/24 04:37:27;;;;;;;3.33;1.70;;;;;;;;;;5088063;28;20024;-52
2021/10/24 04:39:53;;;;;;;2.72;2.30;;;;;;;;;;5087229;28;20399;-53
2021/10/24 04:42:19;;;;;;;1.85;1.50;;;;;;;;;;5087106;28;20031;-50
2021/10/24 04:44:45;;;;;;;3.00;1.70;;;;;;;;;;5074217;28;20032;-52
2021/10/24 04:47:11;;;;;;;2.53;1.70;;;;;;;;;;5067542;28;20021;-51
2021/10/24 04:49:37;;;;;;;3.45;1.80;;;;;;;;;;5077119;28;20028;-52
2021/10/24 04:52:04;;;;;;;2.42;1.70;;;;;;;;;;5088301;28;20436;-53
2021/10/24 04:54:30;;;;;;;2.40;1.80;;;;;;;;;;5075180;28;20041;-53
2021/10/24 04:56:56;;;;;;;3.78;2.30;;;;;;;;;;5067401;28;20414;-52
2021/10/24 04:59:23;;;;;;;3.30;2.20;;;;;;;;;;5067176;28;20035;-53
2021/10/24 05:01:49;;;;;;;3.80;2.10;;;;;;;;;;5065628;28;20025;-49
2021/10/24 05:04:16;;;;;;;2.50;1.90;;;;;;;;;;5066788;28;20036;-52
2021/10/24 05:06:42;;;;;;;3.45;2.20;;;;;;;;;;5067819;28;20012;-50
2021/10/24 05:09:08;;;;;;;3.20;2.15;;;;;;;;;;5066902;28;20040;-52
2021/10/24 05:11:35;;;;;;;2.97;2.00;;;;;;;;;;5066632;28;20035;-51
2021/10/24 05:14:03;;;;;;;6.97;2.83;;;;;;;;;;5066598;28;20098;-52
2021/10/24 05:16:29;;;;;;;2.88;2.20;;;;;;;;;;5066696;28;20734;-51
2021/10/24 05:18:55;;;;;;;3.75;1.90;;;;;;;;;;5066993;28;20028;-51
2021/10/24 05:21:21;;;;;;;2.67;1.88;;;;;;;;;;5069076;28;20385;-52
2021/10/24 05:23:47;;;;;;;4.25;2.15;;;;;;;;;;5086682;28;20535;-52
2021/10/24 05:26:13;;;;;;;2.92;2.10;;;;;;;;;;5087344;28;20487;-51
2021/10/24 05:28:39;;;;;;;3.88;2.05;;;;;;;;;;5085854;28;20028;-50
2021/10/24 05:31:05;;;;;;;2.80;2.15;;;;;;;;;;5084586;28;20081;-49
2021/10/24 05:33:32;;;;;;;4.03;2.03;;;;;;;;;;5086894;28;20426;-49
2021/10/24 05:35:58;;;;;;;3.38;1.90;;;;;;;;;;5081377;28;20025;-50
2021/10/24 05:38:24;;;;;;;4.45;1.98;;;;;;;;;;5066112;28;20078;-52
2021/10/24 05:40:51;;;;;;;5.13;2.50;;;;;;;;;;5066441;28;20028;-52
2021/10/24 05:43:17;;;;;;;3.20;2.20;;;;;;;;;;5066102;28;20067;-50
2021/10/24 05:45:44;;;;;;;2.80;2.28;;;;;;;;;;5066623;28;20381;-49
2021/10/24 05:48:13;;;;;;;6.97;5.72;;;;;;;;;;5066199;28;20446;-49
2021/10/24 05:50:39;;;;;;;5.40;4.43;;;;;;;;;;5079279;28;20024;-53
2021/10/24 05:53:06;;;;;;;6.20;4.40;;;;;;;;;;5068052;28;20056;-49
2021/10/24 05:55:32;;;;;;;4.65;3.58;;;;;;;;;;5067672;28;20397;-51
2021/10/24 05:57:58;;;;;;;5.80;3.72;;;;;;;;;;5076512;28;20089;-52
2021/10/24 06:00:25;;;;;;;4.75;2.90;;;;;;;;;;5085538;28;20495;-50
2021/10/24 06:02:51;;;;;;;4.45;3.00;;;;;;;;;;5086125;28;20059;-53
2021/10/24 06:05:18;;;;;;;3.75;2.83;;;;;;;;;;5086053;28;20208;-52
2021/10/24 06:07:45;;;;;;;4.50;2.88;;;;;;;;;;5080171;28;20037;-52
2021/10/24 06:10:17;;;;;;;7.13;4.47;;;;;;;;;;5066035;28;20032;-51
2021/10/24 06:15:11;;;;;;;7.32;4.60;;;;;;;;;;5065912;28;20060;-53
2021/10/24 06:17:37;;;;;;;8.15;4.95;;;;;;;;;;5065515;28;20032;-50
2021/10/24 06:20:04;;;;;;;7.65;4.95;;;;;;;;;;5065652;28;20024;-50
2021/10/24 06:22:31;;;;;;;6.35;4.53;;;;;;;;;;5076805;28;20039;-52
2021/10/24 06:24:57;;;;;;;6.18;4.05;;;;;;;;;;5086073;28;20026;-54
2021/10/24 06:27:23;;;;;;;5.75;4.25;;;;;;;;;;5085794;28;20024;-53
2021/10/24 06:29:49;;;;;;;4.85;3.10;;;;;;;;;;5086012;28;20053;-50
2021/10/24 06:32:16;;;;;;;5.30;3.45;;;;;;;;;;5073929;28;20085;-51
2021/10/24 06:34:42;;;;;;;4.72;3.20;;;;;;;;;;5065248;28;20025;-51
2021/10/24 06:37:08;;;;;;;6.00;3.38;;;;;;;;;;5065177;28;20073;-52
2021/10/24 06:39:34;;;;;;;5.15;3.40;;;;;;;;;;5064852;28;20111;-51
2021/10/24 06:42:01;;;;;;;5.20;3.00;;;;;;;;;;5064851;28;20028;-53
2021/10/24 06:44:28;;;;;;;5.60;2.92;;;;;;;;;;5064060;28;20025;-53
2021/10/24 06:46:54;;;;;;;4.38;2.80;;;;;;;;;;5065046;28;20025;-51
2021/10/24 06:49:20;;;;;;;4.47;2.70;;;;;;;;;;5064013;28;20017;-52
2021/10/24 06:51:46;;;;;;;3.20;2.13;;;;;;;;;;5065200;28;20056;-53
2021/10/24 06:54:12;;;;;;;3.78;2.47;;;;;;;;;;5065161;28;20109;-53
2021/10/24 06:56:38;;;;;;;5.53;2.58;;;;;;;;;;5064814;28;20028;-52
2021/10/24 06:59:05;;;;;;;3.78;2.20;;;;;;;;;;5065555;28;20027;-53
2021/10/24 07:01:31;;;;;;;3.88;2.67;;;;;;;;;;5066111;28;20032;-53
2021/10/24 07:03:57;;;;;;;2.83;2.17;;;;;;;;;;5066419;28;20518;-54
2021/10/24 07:06:23;;;;;;;3.78;2.40;;;;;;;;;;5066277;28;20479;-50
2021/10/24 07:08:49;;;;;;;3.58;2.35;;;;;;;;;;5066551;28;20107;-52
2021/10/24 07:11:16;;;;;;;7.03;4.10;;;;;;;;;;5066615;28;20029;-53
2021/10/24 07:13:42;;;;;;;5.20;3.50;;;;;;;;;;5066691;28;20074;-52
2021/10/24 07:16:09;;;;;;;6.20;3.97;;;;;;;;;;5081309;28;20032;-53
2021/10/24 07:18:35;;;;;;;6.03;3.83;;;;;;;;;;5086422;28;20621;-54
2021/10/24 07:21:01;;;;;;;5.90;3.72;;;;;;;;;;5081332;28;20091;-53
2021/10/24 07:23:28;;;;;;;5.43;3.15;;;;;;;;;;5068655;28;20494;-53
2021/10/24 07:25:54;;;;;;;5.63;3.10;;;;;;;;;;5065048;28;20488;-51
2021/10/24 07:28:20;;;;;;;3.70;2.58;;;;;;;;;;5066034;28;20042;-53
2021/10/24 07:30:46;;;;;;;4.63;2.65;;;;;;;;;;5066518;28;20028;-53
2021/10/24 07:33:12;;;;;;;11.45;6.22;;;;;;;;;;5066824;28;20033;-53
2021/10/24 07:35:39;;;;;;;15.88;7.55;;;;;;;;;;5066067;28;20060;-51
2021/10/24 07:38:06;;;;;;;13.65;7.35;;;;;;;;;;5065830;28;20027;-53
2021/10/24 07:40:34;;;;;;;16.08;8.27;;;;;;;;;;5065660;28;20075;-52
2021/10/24 07:43:01;;;;;;;17.55;8.68;;;;;;;;;;5065953;28;20029;-50
2021/10/24 07:45:27;;;;;;;14.50;7.78;;;;;;;;;;5065763;28;20129;-52
2021/10/24 07:47:53;;;;;;;13.20;7.40;;;;;;;;;;5069328;28;20047;-53
2021/10/24 07:50:19;;;;;;;11.77;6.80;;;;;;;;;;5068952;28;20073;-53
2021/10/24 07:52:46;;;;;;;10.57;6.00;;;;;;;;;;5069811;28;20177;-53
2021/10/24 07:55:12;;;;;;;9.18;5.57;;;;;;;;;;5070393;28;20085;-51
2021/10/24 07:57:39;;;;;;;8.75;5.18;;;;;;;;;;5069602;28;20460;-50
2021/10/24 08:00:06;;;;;;;9.40;5.25;;;;;;;;;;5072390;28;20020;-52
2021/10/24 08:02:33;;;;;;;8.52;4.90;;;;;;;;;;5072625;28;20047;-52
2021/10/24 08:05:00;;;;;;;7.55;3.92;;;;;;;;;;5075101;28;20012;-51
2021/10/24 08:07:26;;;;;;;8.00;3.90;;;;;;;;;;5069396;28;20028;-51
2021/10/24 08:09:52;;;;;;;5.55;2.85;;;;;;;;;;5069363;28;20048;-50
2021/10/24 08:12:19;;;;;;;4.45;3.00;;;;;;;;;;5079009;28;20548;-51
2021/10/24 08:14:45;;;;;;;4.13;2.55;;;;;;;;;;5088490;28;20035;-50
2021/10/24 08:17:11;;;;;;;5.93;2.47;;;;;;;;;;5089498;28;20042;-51
2021/10/24 08:19:39;;;;;;;4.97;2.30;;;;;;;;;;5099187;28;20032;-47
2021/10/24 08:22:05;;;;;;;2.75;1.90;;;;;;;;;;5109956;28;20024;-51
2021/10/24 08:24:31;;;;;;;2.85;1.85;;;;;;;;;;5087015;28;20020;-52
2021/10/24 08:26:57;;;;;;;3.55;2.28;;;;;;;;;;5069356;28;20056;-50
2021/10/24 08:29:23;;;;;;;3.58;2.20;;;;;;;;;;5067158;28;20506;-51
2021/10/24 08:31:51;;;;;;;2.53;1.90;;;;;;;;;;5068529;28;20032;-51
2021/10/24 08:34:17;;;;;;;2.75;2.00;;;;;;;;;;5068246;28;20095;-51
2021/10/24 08:36:44;;;;;;;3.88;2.58;;;;;;;;;;5069767;28;20028;-52
2021/10/24 08:39:10;;;;;;;3.47;2.28;;;;;;;;;;5069195;28;20024;-51
2021/10/24 08:41:38;;;;;;;4.18;2.45;;;;;;;;;;5080927;28;20033;-51
2021/10/24 08:44:05;;;;;;;4.32;2.42;;;;;;;;;;5068291;28;20492;-51
2021/10/24 08:46:31;;;;;;;3.95;2.63;;;;;;;;;;5079018;28;20514;-51
2021/10/24 08:48:57;;;;;;;2.85;1.98;;;;;;;;;;5087931;28;20099;-48
2021/10/24 08:51:24;;;;;;;3.55;2.20;;;;;;;;;;5083297;28;20028;-51
2021/10/24 08:53:50;;;;;;;4.55;2.25;;;;;;;;;;5080871;28;20028;-50
2021/10/24 08:56:17;;;;;;;2.97;2.13;;;;;;;;;;5083373;28;20021;-51
2021/10/24 08:58:44;;;;;;;3.47;2.25;;;;;;;;;;5075475;28;20093;-48
2021/10/24 09:01:11;;;;;;;2.72;1.90;;;;;;;;;;5081183;28;20410;-51
2021/10/24 09:03:37;;;;;;;2.67;2.13;;;;;;;;;;5086309;28;20028;-49
2021/10/24 09:06:05;;;;;;;2.72;2.17;;;;;;;;;;5088896;28;20055;-48
2021/10/24 09:08:32;;;;;;;3.80;2.25;;;;;;;;;;5081125;28;20554;-50
2021/10/24 09:11:01;;;;;;;2.92;1.98;;;;;;;;;;5084770;28;20461;-50
2021/10/24 09:13:29;;;;;;;3.35;2.10;;;;;;;;;;5079727;28;20028;-51
2021/10/24 09:16:00;;;;;;;3.20;2.08;;;;;;;;;;5081610;28;20605;-53
2021/10/24 09:18:33;;;;;;;2.75;2.05;;;;;;;;;;5083164;28;21180;-53
2021/10/24 09:21:18;;;;;;;2.67;1.90;;;;;;;;;;5066950;28;20021;-53
2021/10/24 09:23:54;;;;;;;2.17;1.75;;;;;;;;;;5083516;28;20100;-50
2021/10/24 09:26:21;;;;;;;2.03;1.42;;;;;;;;;;5075781;28;20027;-48
2021/10/24 09:28:59;;;;;;;2.45;1.60;;;;;;;;;;5066931;28;20213;-49
2021/10/24 09:31:32;;;;;;;2.75;1.48;;;;;;;;;;5069750;28;20021;-50
2021/10/24 09:34:10;;;;;;;2.08;1.48;;;;;;;;;;5074777;28;20027;-51
2021/10/24 09:36:46;;;;;;;1.13;0.82;;;;;;;;;;5069020;28;20112;-53
2021/10/24 09:39:12;;;;;;;1.00;0.90;;;;;;;;;;5074934;28;20024;-52
2021/10/24 09:41:38;;;;;;;0.95;0.88;;;;;;;;;;5075605;28;20035;-51
2021/10/24 09:44:22;;;;;;;2.65;1.27;;;;;;;;;;5067424;28;20114;-51
2021/10/24 09:46:58;;;;;;;6.30;2.75;;;;;;;;;;5080143;28;20028;-48
2021/10/24 09:49:26;;;;;;;7.43;2.42;;;;;;;;;;5070161;28;20061;-50
2021/10/24 09:51:55;;;;;;;4.55;1.95;;;;;;;;;;5073559;28;20047;-51
2021/10/24 09:54:26;;;;;;;5.13;2.40;;;;;;;;;;5072480;28;20033;-51
2021/10/24 09:56:53;;;;;;;3.50;1.65;;;;;;;;;;5075506;28;20107;-50
2021/10/24 09:59:25;;;;;;;4.60;2.00;;;;;;;;;;5079310;28;20039;-48
2021/10/24 10:01:52;;;;;;;2.25;1.40;;;;;;;;;;5075420;28;20115;-51
2021/10/24 10:04:18;;;;;;;1.92;1.73;;;;;;;;;;5080187;28;20028;-51
2021/10/24 10:06:44;;;;;;;2.17;1.38;;;;;;;;;;5078375;28;20520;-50
2021/10/24 10:09:14;;;;;;;2.85;1.50;;;;;;;;;;5072694;28;20036;-51
2021/10/24 10:11:51;;;;;;;2.60;1.50;;;;;;;;;;5080268;28;20032;-52
2021/10/24 10:14:20;;;;;;;1.80;1.33;;;;;;;;;;5069803;28;20032;-50
2021/10/24 10:16:50;;;;;;;1.77;1.35;;;;;;;;;;5080775;28;20095;-52
2021/10/24 10:19:27;;;;;;;2.88;1.30;;;;;;;;;;5079172;28;20043;-53
2021/10/24 10:21:53;;;;;;;1.90;0.90;;;;;;;;;;5065821;28;20070;-52
2021/10/24 10:24:48;;;;;;;0.90;0.80;;;;;;;;;;5075133;28;20039;-54
2021/10/24 10:27:29;;;;;;;1.40;1.00;;;;;;;;;;5074247;28;20038;-53
2021/10/24 10:29:56;;;;;;;2.22;0.98;;;;;;;;;;5073163;28;20031;-53
2021/10/24 10:32:24;;;;;;;1.95;1.13;;;;;;;;;;5065904;28;20493;-53
2021/10/24 10:35:00;;;;;;;1.58;0.90;;;;;;;;;;5075256;28;20028;-54
2021/10/24 10:37:55;;;;;;;1.45;1.15;;;;;;;;;;5086417;28;20020;-54
2021/10/24 10:40:32;;;;;;;1.30;0.80;;;;;;;;;;5086060;28;20024;-53
2021/10/24 10:42:58;;;;;;;1.10;0.90;;;;;;;;;;5086477;28;20050;-52
2021/10/24 10:45:43;;;;;;;2.03;1.05;;;;;;;;;;5070235;28;20060;-53
2021/10/24 10:48:27;;;;;;;0.98;0.70;;;;;;;;;;5067238;28;20020;-53
2021/10/24 10:50:57;;;;;;;1.25;1.00;;;;;;;;;;5086288;28;20071;-54
2021/10/24 10:53:32;;;;;;;2.15;1.27;;;;;;;;;;5086001;28;20099;-54
2021/10/24 10:56:02;;;;;;;1.33;0.90;;;;;;;;;;5066089;28;20107;-52
2021/10/24 10:58:36;;;;;;;1.20;1.10;;;;;;;;;;5065908;28;20552;-51
2021/10/24 11:01:03;;;;;;;1.50;1.33;;;;;;;;;;5066055;28;20112;-54
2021/10/24 11:03:45;;;;;;;1.25;1.10;;;;;;;;;;5077006;28;20085;-54
2021/10/24 11:06:32;;;;;;;0.95;0.70;;;;;;;;;;5081374;28;20035;-53
2021/10/24 11:09:02;;;;;;;1.38;1.05;;;;;;;;;;5085464;28;20027;-52
2021/10/24 11:11:40;;;;;;;0.80;0.80;;;;;;;;;;5078467;28;20041;-51
2021/10/24 11:14:16;;;;;;;0.85;0.73;;;;;;;;;;5074258;28;20031;-54
2021/10/24 11:16:43;;;;;;;1.08;0.85;;;;;;;;;;5066257;28;20097;-55
2021/10/24 11:21:55;;;;;;;;;;;;;;;;;;5084976;28;20040;-53
2021/10/24 11:24:22;;;;;;;1.35;0.90;;;;;;;;;;5079768;28;19986;-53
2021/10/24 11:26:57;;;;;;;1.63;1.00;;;;;;;;;;5081787;28;20103;-53
2021/10/24 11:29:23;;;;;;;0.80;0.75;;;;;;;;;;5075104;28;20479;-52
2021/10/24 11:32:09;;;;;;;1.55;1.00;;;;;;;;;;5085987;28;20035;-53
2021/10/24 11:34:35;;;;;;;3.00;0.85;;;;;;;;;;5078483;28;20048;-51
2021/10/24 11:37:01;;;;;;;1.33;0.70;;;;;;;;;;5065970;28;20767;-52
2021/10/24 11:39:27;;;;;;;1.20;0.70;;;;;;;;;;5067628;28;20043;-50
2021/10/24 11:42:07;;;;;;;0.80;0.70;;;;;;;;;;5100030;28;20032;-53
2021/10/24 11:44:33;;;;;;;0.95;0.70;;;;;;;;;;5087226;28;20040;-53
2021/10/24 11:47:09;;;;;;;1.65;0.82;;;;;;;;;;5065416;28;20021;-52
2021/10/24 11:49:47;;;;;;;1.13;0.77;;;;;;;;;;5064957;28;20024;-51
2021/10/24 11:52:22;;;;;;;1.13;0.88;;;;;;;;;;5066365;28;20029;-52
2021/10/24 11:55:09;;;;;;;0.93;0.80;;;;;;;;;;5064967;28;20467;-50
2021/10/24 12:00:28;;;;;;;1.35;0.70;;;;;;;;;;5079934;28;20469;-50
2021/10/24 12:02:58;;;;;;;0.63;0.60;;;;;;;;;;5068213;28;20684;-50
2021/10/24 12:05:26;;;;;;;0.68;0.60;;;;;;;;;;5084290;28;20028;-53
2021/10/24 12:07:52;;;;;;;1.25;0.68;;;;;;;;;;5083606;28;20634;-52
2021/10/24 12:10:19;;;;;;;0.65;0.60;;;;;;;;;;5085319;28;20032;-52
2021/10/24 12:12:46;;;;;;;0.77;0.70;;;;;;;;;;5075050;28;20387;-53
2021/10/24 12:15:15;;;;;;;0.95;0.80;;;;;;;;;;5064280;28;20035;-53
2021/10/24 12:17:43;;;;;;;1.05;0.95;;;;;;;;;;5065927;28;20048;-52
2021/10/24 12:20:18;;;;;;;0.73;0.68;;;;;;;;;;5063559;28;20443;-54
2021/10/24 12:22:45;;;;;;;1.05;0.88;;;;;;;;;;5066256;28;20056;-53
2021/10/24 12:25:18;;;;;;;0.77;0.70;;;;;;;;;;5064559;28;20086;-54
2021/10/24 12:27:46;;;;;;;0.60;0.60;;;;;;;;;;5065847;28;20028;-53
2021/10/24 12:30:18;;;;;;;1.27;0.70;;;;;;;;;;5065503;28;20048;-53
2021/10/24 12:33:20;;;;;;;0.70;0.70;;;;;;;;;;5075722;28;20073;-54
2021/10/24 12:35:48;;;;;;;0.82;0.60;;;;;;;;;;5065031;28;20046;-53
2021/10/24 12:38:15;;;;;;;0.95;0.80;;;;;;;;;;5069019;28;20107;-54
2021/10/24 12:40:50;;;;;;;1.05;0.82;;;;;;;;;;5075114;28;20647;-54
2021/10/24 12:43:16;;;;;;;0.68;0.60;;;;;;;;;;5084240;28;20030;-55
2021/10/24 12:45:52;;;;;;;0.80;0.55;;;;;;;;;;5089560;28;20044;-53
2021/10/24 12:48:18;;;;;;;0.50;0.50;;;;;;;;;;5088340;28;20028;-54
2021/10/24 12:50:44;;;;;;;0.60;0.52;;;;;;;;;;5088037;28;20110;-54
2021/10/24 12:53:13;;;;;;;0.73;0.73;;;;;;;;;;5069560;28;20086;-54
2021/10/24 12:55:40;;;;;;;1.60;0.73;;;;;;;;;;5068266;28;20523;-54
2021/10/24 12:58:06;;;;;;;1.05;0.63;;;;;;;;;;5079783;28;20028;-53
2021/10/24 13:00:34;;;;;;;0.63;0.60;;;;;;;;;;5086977;28;20024;-51
2021/10/24 13:03:00;;;;;;;0.65;0.65;;;;;;;;;;5078362;28;20035;-52
2021/10/24 13:05:26;;;;;;;1.10;0.80;;;;;;;;;;5088233;28;20608;-51
2021/10/24 13:07:53;;;;;;;0.70;0.70;;;;;;;;;;5088382;28;20024;-52
2021/10/24 13:10:19;;;;;;;0.70;0.70;;;;;;;;;;5086629;28;20039;-50
2021/10/24 13:12:46;;;;;;;0.70;0.57;;;;;;;;;;5079818;28;20032;-51
2021/10/24 13:15:12;;;;;;;0.70;0.68;;;;;;;;;;5089027;28;20023;-52
2021/10/24 13:17:38;;;;;;;1.05;0.60;;;;;;;;;;5088064;28;20103;-52
2021/10/24 13:20:09;;;;;;;0.60;0.60;;;;;;;;;;5088206;28;20078;-53
2021/10/24 13:25:20;;;;;;;0.88;0.60;;;;;;;;;;5066616;28;20086;-50
2021/10/24 13:27:47;;;;;;;1.42;0.93;;;;;;;;;;5067310;28;20032;-53
2021/10/24 13:30:13;;;;;;;1.20;0.90;;;;;;;;;;5068432;28;20021;-52
2021/10/24 13:32:39;;;;;;;0.50;0.50;;;;;;;;;;5067918;28;20032;-52
2021/10/24 13:35:05;;;;;;;0.80;0.60;;;;;;;;;;5067458;28;20024;-53
2021/10/24 13:37:31;;;;;;;0.75;0.60;;;;;;;;;;5066091;28;20198;-54
2021/10/24 13:39:57;;;;;;;0.73;0.63;;;;;;;;;;5067493;28;20594;-52
2021/10/24 13:42:24;;;;;;;0.50;0.50;;;;;;;;;;5066514;28;20032;-52
2021/10/24 13:44:51;;;;;;;0.63;0.63;;;;;;;;;;5066123;28;20024;-52
2021/10/24 13:47:18;;;;;;;0.77;0.70;;;;;;;;;;5085948;28;20028;-52
2021/10/24 13:49:44;;;;;;;0.77;0.70;;;;;;;;;;5086525;28;20083;-53
2021/10/24 13:52:10;;;;;;;0.60;0.60;;;;;;;;;;5085228;28;20039;-52
2021/10/24 13:54:36;;;;;;;0.80;0.80;;;;;;;;;;5087365;28;20046;-53
2021/10/24 13:57:03;;;;;;;0.70;0.70;;;;;;;;;;5071131;28;20101;-52
2021/10/24 13:59:29;;;;;;;0.68;0.68;;;;;;;;;;5070932;28;20020;-53
2021/10/24 14:01:55;;;;;;;1.05;0.93;;;;;;;;;;5073254;28;20033;-52
2021/10/24 14:04:21;;;;;;;1.75;1.17;;;;;;;;;;5085954;28;20404;-52
2021/10/24 14:06:47;;;;;;;1.75;1.20;;;;;;;;;;5087289;28;20751;-53
2021/10/24 14:09:13;;;;;;;2.08;1.10;;;;;;;;;;5071117;28;20508;-53
2021/10/24 14:11:39;;;;;;;2.63;0.90;;;;;;;;;;5084742;28;20032;-52
2021/10/24 14:14:05;;;;;;;1.73;1.30;;;;;;;;;;5083904;28;20414;-53
2021/10/24 14:16:31;;;;;;;0.93;0.90;;;;;;;;;;5080836;28;20445;-52
2021/10/24 14:18:57;;;;;;;1.80;1.33;;;;;;;;;;5063860;28;20028;-54
2021/10/24 14:21:23;;;;;;;2.25;1.00;;;;;;;;;;5062813;28;20037;-52
2021/10/24 14:23:49;;;;;;;1.60;1.00;;;;;;;;;;5076736;28;20031;-55
2021/10/24 14:26:15;;;;;;;1.52;1.00;;;;;;;;;;5069102;28;20606;-54
2021/10/24 14:28:42;;;;;;;1.42;0.90;;;;;;;;;;5074511;28;20418;-52
2021/10/24 14:31:10;;;;;;;1.35;0.80;;;;;;;;;;5073456;28;20040;-54
2021/10/24 14:33:37;;;;;;;2.42;1.17;;;;;;;;;;5067559;28;20036;-55
2021/10/24 14:36:03;;;;;;;1.15;0.90;;;;;;;;;;5079929;28;20445;-54
2021/10/24 14:38:29;;;;;;;1.30;1.20;;;;;;;;;;5084095;28;20055;-54
2021/10/24 14:40:56;;;;;;;1.65;1.00;;;;;;;;;;5084905;28;20036;-54
2021/10/24 14:43:22;;;;;;;1.42;1.13;;;;;;;;;;5083947;28;20034;-54
2021/10/24 14:45:48;;;;;;;1.00;0.90;;;;;;;;;;5081955;28;20022;-54
2021/10/24 14:48:15;;;;;;;1.05;0.88;;;;;;;;;;5072457;28;20029;-54
2021/10/24 14:50:41;;;;;;;1.63;0.82;;;;;;;;;;5066196;28;20050;-52
2021/10/24 14:53:07;;;;;;;1.02;0.93;;;;;;;;;;5066132;28;20449;-53
2021/10/24 14:55:33;;;;;;;2.08;1.02;;;;;;;;;;5065376;28;20044;-54
2021/10/24 14:58:00;;;;;;;1.13;1.00;;;;;;;;;;5064383;28;20050;-54